sensor_id;sensor_type;location;lat;lon;timestamp;P1;durP1;ratioP1;P2;durP2;ratioP2
51824;SDS011;37879;52.986;6.282;2023-09-19T00:02:16;4.28;;;1.50;;
51824;SDS011;37879;52.986;6.282;2023-09-19T00:04:44;7.63;;;1.63;;
51824;SDS011;37879;52.986;6.282;2023-09-19T00:07:10;6.90;;;2.08;;
51824;SDS011;37879;52.986;6.282;2023-09-19T00:09:35;5.05;;;1.30;;
51824;SDS011;37879;52.986;6.282;2023-09-19T00:12:05;5.93;;;1.55;;
51824;SDS011;37879;52.986;6.282;2023-09-19T00:14:32;8.02;;;1.67;;
51824;SDS011;37879;52.986;6.282;2023-09-19T00:17:06;4.47;;;1.63;;
51824;SDS011;37879;52.986;6.282;2023-09-19T00:19:36;7.28;;;1.77;;
51824;SDS011;37879;52.986;6.282;2023-09-19T00:22:03;8.88;;;2.10;;
51824;SDS011;37879;52.986;6.282;2023-09-19T00:24:29;5.40;;;1.63;;
51824;SDS011;37879;52.986;6.282;2023-09-19T00:26:56;3.85;;;1.20;;
51824;SDS011;37879;52.986;6.282;2023-09-19T00:29:23;8.18;;;1.98;;
51824;SDS011;37879;52.986;6.282;2023-09-19T00:31:54;9.48;;;1.70;;
51824;SDS011;37879;52.986;6.282;2023-09-19T00:34:21;8.13;;;2.42;;
51824;SDS011;37879;52.986;6.282;2023-09-19T00:36:47;5.55;;;2.10;;
51824;SDS011;37879;52.986;6.282;2023-09-19T00:39:12;5.90;;;1.80;;
51824;SDS011;37879;52.986;6.282;2023-09-19T00:41:38;7.80;;;1.80;;
51824;SDS011;37879;52.986;6.282;2023-09-19T00:44:04;5.85;;;1.45;;
51824;SDS011;37879;52.986;6.282;2023-09-19T00:46:30;6.05;;;1.83;;
51824;SDS011;37879;52.986;6.282;2023-09-19T00:48:57;5.75;;;1.25;;
51824;SDS011;37879;52.986;6.282;2023-09-19T00:51:24;7.80;;;2.15;;
51824;SDS011;37879;52.986;6.282;2023-09-19T00:53:51;6.68;;;1.60;;
51824;SDS011;37879;52.986;6.282;2023-09-19T00:56:17;5.97;;;2.03;;
51824;SDS011;37879;52.986;6.282;2023-09-19T00:58:47;8.52;;;2.00;;
51824;SDS011;37879;52.986;6.282;2023-09-19T01:01:13;4.68;;;1.30;;
51824;SDS011;37879;52.986;6.282;2023-09-19T01:03:42;7.25;;;1.92;;
51824;SDS011;37879;52.986;6.282;2023-09-19T01:06:09;6.22;;;2.00;;
51824;SDS011;37879;52.986;6.282;2023-09-19T01:08:35;5.68;;;1.75;;
51824;SDS011;37879;52.986;6.282;2023-09-19T01:11:08;7.72;;;1.73;;
51824;SDS011;37879;52.986;6.282;2023-09-19T01:22:35;5.97;;;1.80;;
51824;SDS011;37879;52.986;6.282;2023-09-19T01:28:34;6.40;;;1.98;;
51824;SDS011;37879;52.986;6.282;2023-09-19T01:31:12;5.88;;;1.35;;
51824;SDS011;37879;52.986;6.282;2023-09-19T01:33:54;6.03;;;2.00;;
51824;SDS011;37879;52.986;6.282;2023-09-19T01:36:25;9.85;;;2.78;;
51824;SDS011;37879;52.986;6.282;2023-09-19T01:38:51;9.27;;;2.00;;
51824;SDS011;37879;52.986;6.282;2023-09-19T01:41:21;9.10;;;2.83;;
51824;SDS011;37879;52.986;6.282;2023-09-19T01:43:52;6.13;;;1.80;;
51824;SDS011;37879;52.986;6.282;2023-09-19T01:46:19;5.53;;;2.22;;
51824;SDS011;37879;52.986;6.282;2023-09-19T01:51:44;7.77;;;1.73;;
51824;SDS011;37879;52.986;6.282;2023-09-19T01:54:18;6.05;;;1.38;;
51824;SDS011;37879;52.986;6.282;2023-09-19T01:59:41;5.80;;;1.55;;
51824;SDS011;37879;52.986;6.282;2023-09-19T02:02:13;9.38;;;1.40;;
51824;SDS011;37879;52.986;6.282;2023-09-19T02:04:40;4.57;;;1.38;;
51824;SDS011;37879;52.986;6.282;2023-09-19T02:07:05;4.72;;;1.33;;
51824;SDS011;37879;52.986;6.282;2023-09-19T02:09:31;6.50;;;2.10;;
51824;SDS011;37879;52.986;6.282;2023-09-19T02:12:00;6.55;;;2.03;;
51824;SDS011;37879;52.986;6.282;2023-09-19T02:14:29;6.30;;;1.42;;
51824;SDS011;37879;52.986;6.282;2023-09-19T02:16:55;7.35;;;1.40;;
51824;SDS011;37879;52.986;6.282;2023-09-19T02:19:21;5.88;;;1.40;;
51824;SDS011;37879;52.986;6.282;2023-09-19T02:21:47;8.25;;;1.55;;
51824;SDS011;37879;52.986;6.282;2023-09-19T02:24:14;2.92;;;1.10;;
51824;SDS011;37879;52.986;6.282;2023-09-19T02:26:40;5.43;;;1.40;;
51824;SDS011;37879;52.986;6.282;2023-09-19T02:29:06;5.43;;;1.55;;
51824;SDS011;37879;52.986;6.282;2023-09-19T02:31:32;8.15;;;2.78;;
51824;SDS011;37879;52.986;6.282;2023-09-19T02:33:57;10.93;;;3.42;;
51824;SDS011;37879;52.986;6.282;2023-09-19T02:36:25;7.15;;;1.70;;
51824;SDS011;37879;52.986;6.282;2023-09-19T02:38:51;11.00;;;1.65;;
51824;SDS011;37879;52.986;6.282;2023-09-19T02:41:16;7.05;;;1.25;;
51824;SDS011;37879;52.986;6.282;2023-09-19T02:43:42;4.03;;;1.30;;
51824;SDS011;37879;52.986;6.282;2023-09-19T02:46:08;4.20;;;1.10;;
51824;SDS011;37879;52.986;6.282;2023-09-19T02:48:36;8.50;;;1.60;;
51824;SDS011;37879;52.986;6.282;2023-09-19T02:51:02;4.53;;;1.55;;
51824;SDS011;37879;52.986;6.282;2023-09-19T02:53:30;7.13;;;1.90;;
51824;SDS011;37879;52.986;6.282;2023-09-19T02:55:57;5.97;;;1.75;;
51824;SDS011;37879;52.986;6.282;2023-09-19T02:58:24;6.40;;;1.58;;
51824;SDS011;37879;52.986;6.282;2023-09-19T03:00:50;7.43;;;2.13;;
51824;SDS011;37879;52.986;6.282;2023-09-19T03:03:16;5.90;;;1.73;;
51824;SDS011;37879;52.986;6.282;2023-09-19T03:05:42;6.80;;;1.88;;
51824;SDS011;37879;52.986;6.282;2023-09-19T03:08:13;6.25;;;1.60;;
51824;SDS011;37879;52.986;6.282;2023-09-19T03:10:42;6.30;;;2.20;;
51824;SDS011;37879;52.986;6.282;2023-09-19T03:13:07;6.35;;;1.83;;
51824;SDS011;37879;52.986;6.282;2023-09-19T03:15:35;6.63;;;1.60;;
51824;SDS011;37879;52.986;6.282;2023-09-19T03:18:04;6.03;;;1.55;;
51824;SDS011;37879;52.986;6.282;2023-09-19T03:20:31;8.60;;;2.30;;
51824;SDS011;37879;52.986;6.282;2023-09-19T03:22:56;4.60;;;1.40;;
51824;SDS011;37879;52.986;6.282;2023-09-19T03:25:22;8.45;;;2.33;;
51824;SDS011;37879;52.986;6.282;2023-09-19T03:27:48;7.32;;;1.50;;
51824;SDS011;37879;52.986;6.282;2023-09-19T03:30:13;6.88;;;2.10;;
51824;SDS011;37879;52.986;6.282;2023-09-19T03:32:43;8.25;;;1.80;;
51824;SDS011;37879;52.986;6.282;2023-09-19T03:35:10;4.13;;;1.52;;
51824;SDS011;37879;52.986;6.282;2023-09-19T03:37:36;6.95;;;2.17;;
51824;SDS011;37879;52.986;6.282;2023-09-19T03:40:02;3.60;;;1.45;;
51824;SDS011;37879;52.986;6.282;2023-09-19T03:42:30;2.83;;;1.25;;
51824;SDS011;37879;52.986;6.282;2023-09-19T03:44:56;6.38;;;1.88;;
51824;SDS011;37879;52.986;6.282;2023-09-19T03:47:22;6.40;;;1.55;;
51824;SDS011;37879;52.986;6.282;2023-09-19T03:49:48;4.63;;;1.95;;
51824;SDS011;37879;52.986;6.282;2023-09-19T03:52:13;4.97;;;1.70;;
51824;SDS011;37879;52.986;6.282;2023-09-19T03:54:41;7.30;;;1.73;;
51824;SDS011;37879;52.986;6.282;2023-09-19T03:57:06;5.50;;;1.55;;
51824;SDS011;37879;52.986;6.282;2023-09-19T03:59:32;8.02;;;1.80;;
51824;SDS011;37879;52.986;6.282;2023-09-19T04:01:58;4.57;;;1.95;;
51824;SDS011;37879;52.986;6.282;2023-09-19T04:04:24;7.63;;;1.77;;
51824;SDS011;37879;52.986;6.282;2023-09-19T04:06:50;6.72;;;1.83;;
51824;SDS011;37879;52.986;6.282;2023-09-19T04:09:16;8.68;;;1.92;;
51824;SDS011;37879;52.986;6.282;2023-09-19T04:11:42;6.65;;;1.65;;
51824;SDS011;37879;52.986;6.282;2023-09-19T04:14:07;5.97;;;1.70;;
51824;SDS011;37879;52.986;6.282;2023-09-19T04:16:33;4.90;;;1.52;;
51824;SDS011;37879;52.986;6.282;2023-09-19T04:18:58;4.70;;;1.88;;
51824;SDS011;37879;52.986;6.282;2023-09-19T04:21:24;5.18;;;1.27;;
51824;SDS011;37879;52.986;6.282;2023-09-19T04:23:50;6.60;;;1.77;;
51824;SDS011;37879;52.986;6.282;2023-09-19T04:26:16;8.13;;;1.58;;
51824;SDS011;37879;52.986;6.282;2023-09-19T04:28:42;7.05;;;1.70;;
51824;SDS011;37879;52.986;6.282;2023-09-19T04:31:09;5.30;;;1.70;;
51824;SDS011;37879;52.986;6.282;2023-09-19T04:33:35;4.38;;;1.70;;
51824;SDS011;37879;52.986;6.282;2023-09-19T04:36:01;7.57;;;1.90;;
51824;SDS011;37879;52.986;6.282;2023-09-19T04:38:28;5.15;;;1.38;;
51824;SDS011;37879;52.986;6.282;2023-09-19T04:40:57;4.80;;;1.70;;
51824;SDS011;37879;52.986;6.282;2023-09-19T04:43:24;10.05;;;2.47;;
51824;SDS011;37879;52.986;6.282;2023-09-19T04:45:50;8.95;;;2.67;;
51824;SDS011;37879;52.986;6.282;2023-09-19T04:48:16;6.18;;;2.03;;
51824;SDS011;37879;52.986;6.282;2023-09-19T04:50:41;8.02;;;2.22;;
51824;SDS011;37879;52.986;6.282;2023-09-19T04:53:08;7.55;;;1.90;;
51824;SDS011;37879;52.986;6.282;2023-09-19T04:55:33;6.68;;;1.52;;
51824;SDS011;37879;52.986;6.282;2023-09-19T04:57:59;4.65;;;2.22;;
51824;SDS011;37879;52.986;6.282;2023-09-19T05:00:24;7.15;;;2.20;;
51824;SDS011;37879;52.986;6.282;2023-09-19T05:02:53;6.38;;;1.70;;
51824;SDS011;37879;52.986;6.282;2023-09-19T05:05:21;8.15;;;1.77;;
51824;SDS011;37879;52.986;6.282;2023-09-19T05:07:48;11.68;;;2.00;;
51824;SDS011;37879;52.986;6.282;2023-09-19T05:10:14;5.68;;;1.60;;
51824;SDS011;37879;52.986;6.282;2023-09-19T05:12:43;6.22;;;2.03;;
51824;SDS011;37879;52.986;6.282;2023-09-19T05:15:12;8.38;;;2.42;;
51824;SDS011;37879;52.986;6.282;2023-09-19T05:17:39;7.45;;;2.28;;
51824;SDS011;37879;52.986;6.282;2023-09-19T05:20:05;6.60;;;1.88;;
51824;SDS011;37879;52.986;6.282;2023-09-19T05:22:49;7.47;;;1.80;;
51824;SDS011;37879;52.986;6.282;2023-09-19T05:25:15;7.07;;;1.85;;
51824;SDS011;37879;52.986;6.282;2023-09-19T05:27:43;8.55;;;1.90;;
51824;SDS011;37879;52.986;6.282;2023-09-19T05:30:09;10.70;;;2.13;;
51824;SDS011;37879;52.986;6.282;2023-09-19T05:32:35;6.55;;;1.50;;
51824;SDS011;37879;52.986;6.282;2023-09-19T05:35:01;4.03;;;1.67;;
51824;SDS011;37879;52.986;6.282;2023-09-19T05:37:28;9.27;;;2.28;;
51824;SDS011;37879;52.986;6.282;2023-09-19T05:39:54;6.85;;;2.08;;
51824;SDS011;37879;52.986;6.282;2023-09-19T05:42:20;7.70;;;1.60;;
51824;SDS011;37879;52.986;6.282;2023-09-19T05:44:46;10.65;;;2.50;;
51824;SDS011;37879;52.986;6.282;2023-09-19T05:47:11;7.93;;;1.80;;
51824;SDS011;37879;52.986;6.282;2023-09-19T05:49:38;7.45;;;1.77;;
51824;SDS011;37879;52.986;6.282;2023-09-19T05:52:06;7.38;;;1.70;;
51824;SDS011;37879;52.986;6.282;2023-09-19T05:54:32;7.07;;;1.90;;
51824;SDS011;37879;52.986;6.282;2023-09-19T05:56:59;6.97;;;2.00;;
51824;SDS011;37879;52.986;6.282;2023-09-19T05:59:26;5.82;;;1.67;;
51824;SDS011;37879;52.986;6.282;2023-09-19T06:01:52;9.07;;;2.10;;
51824;SDS011;37879;52.986;6.282;2023-09-19T06:04:18;7.95;;;2.10;;
51824;SDS011;37879;52.986;6.282;2023-09-19T06:06:46;6.88;;;1.95;;
51824;SDS011;37879;52.986;6.282;2023-09-19T06:09:13;7.90;;;1.75;;
51824;SDS011;37879;52.986;6.282;2023-09-19T06:11:42;7.47;;;2.05;;
51824;SDS011;37879;52.986;6.282;2023-09-19T06:14:08;7.88;;;1.80;;
51824;SDS011;37879;52.986;6.282;2023-09-19T06:16:35;9.30;;;1.88;;
51824;SDS011;37879;52.986;6.282;2023-09-19T06:19:03;7.25;;;1.70;;
51824;SDS011;37879;52.986;6.282;2023-09-19T06:21:31;5.32;;;2.40;;
51824;SDS011;37879;52.986;6.282;2023-09-19T06:23:57;7.07;;;1.85;;
51824;SDS011;37879;52.986;6.282;2023-09-19T06:26:23;4.97;;;1.42;;
51824;SDS011;37879;52.986;6.282;2023-09-19T06:28:48;6.47;;;2.05;;
51824;SDS011;37879;52.986;6.282;2023-09-19T06:31:14;8.80;;;2.05;;
51824;SDS011;37879;52.986;6.282;2023-09-19T06:33:40;6.75;;;2.20;;
51824;SDS011;37879;52.986;6.282;2023-09-19T06:36:06;8.40;;;1.83;;
51824;SDS011;37879;52.986;6.282;2023-09-19T06:38:32;8.07;;;1.90;;
51824;SDS011;37879;52.986;6.282;2023-09-19T06:41:01;6.38;;;2.35;;
51824;SDS011;37879;52.986;6.282;2023-09-19T06:43:30;8.20;;;2.38;;
51824;SDS011;37879;52.986;6.282;2023-09-19T06:45:56;7.68;;;1.98;;
51824;SDS011;37879;52.986;6.282;2023-09-19T06:48:22;8.13;;;2.25;;
51824;SDS011;37879;52.986;6.282;2023-09-19T06:50:50;7.43;;;2.08;;
51824;SDS011;37879;52.986;6.282;2023-09-19T06:53:17;7.30;;;2.92;;
51824;SDS011;37879;52.986;6.282;2023-09-19T06:55:43;4.80;;;1.75;;
51824;SDS011;37879;52.986;6.282;2023-09-19T06:58:10;6.93;;;2.47;;
51824;SDS011;37879;52.986;6.282;2023-09-19T07:00:36;7.22;;;2.67;;
51824;SDS011;37879;52.986;6.282;2023-09-19T07:03:04;6.45;;;2.28;;
51824;SDS011;37879;52.986;6.282;2023-09-19T07:05:33;7.47;;;2.47;;
51824;SDS011;37879;52.986;6.282;2023-09-19T07:08:02;9.05;;;2.03;;
51824;SDS011;37879;52.986;6.282;2023-09-19T07:10:28;8.93;;;2.20;;
51824;SDS011;37879;52.986;6.282;2023-09-19T07:13:02;9.18;;;1.70;;
51824;SDS011;37879;52.986;6.282;2023-09-19T07:15:29;7.15;;;2.17;;
51824;SDS011;37879;52.986;6.282;2023-09-19T07:18:00;11.93;;;2.65;;
51824;SDS011;37879;52.986;6.282;2023-09-19T07:20:26;5.78;;;1.63;;
51824;SDS011;37879;52.986;6.282;2023-09-19T07:22:53;8.73;;;2.53;;
51824;SDS011;37879;52.986;6.282;2023-09-19T07:25:24;8.00;;;2.40;;
51824;SDS011;37879;52.986;6.282;2023-09-19T07:27:50;9.52;;;2.30;;
51824;SDS011;37879;52.986;6.282;2023-09-19T07:30:16;7.90;;;2.00;;
51824;SDS011;37879;52.986;6.282;2023-09-19T07:32:42;9.73;;;2.50;;
51824;SDS011;37879;52.986;6.282;2023-09-19T07:35:08;9.10;;;2.90;;
51824;SDS011;37879;52.986;6.282;2023-09-19T07:37:33;9.93;;;3.22;;
51824;SDS011;37879;52.986;6.282;2023-09-19T07:40:01;6.80;;;1.92;;
51824;SDS011;37879;52.986;6.282;2023-09-19T07:42:36;6.43;;;1.67;;
51824;SDS011;37879;52.986;6.282;2023-09-19T07:45:06;10.77;;;2.50;;
51824;SDS011;37879;52.986;6.282;2023-09-19T07:47:32;7.22;;;2.28;;
51824;SDS011;37879;52.986;6.282;2023-09-19T07:49:59;7.88;;;1.92;;
51824;SDS011;37879;52.986;6.282;2023-09-19T07:52:27;9.48;;;2.20;;
51824;SDS011;37879;52.986;6.282;2023-09-19T07:54:54;13.27;;;2.65;;
51824;SDS011;37879;52.986;6.282;2023-09-19T07:57:20;6.95;;;1.98;;
51824;SDS011;37879;52.986;6.282;2023-09-19T07:59:45;7.88;;;2.05;;
51824;SDS011;37879;52.986;6.282;2023-09-19T08:02:11;7.53;;;2.55;;
51824;SDS011;37879;52.986;6.282;2023-09-19T08:04:44;5.40;;;1.95;;
51824;SDS011;37879;52.986;6.282;2023-09-19T08:07:14;7.47;;;2.30;;
51824;SDS011;37879;52.986;6.282;2023-09-19T08:09:40;7.30;;;2.17;;
51824;SDS011;37879;52.986;6.282;2023-09-19T08:12:06;8.20;;;2.35;;
51824;SDS011;37879;52.986;6.282;2023-09-19T09:05:30;11.73;;;3.20;;
51824;SDS011;37879;52.986;6.282;2023-09-19T09:08:12;9.15;;;3.00;;
51824;SDS011;37879;52.986;6.282;2023-09-19T09:10:39;9.77;;;3.03;;
51824;SDS011;37879;52.986;6.282;2023-09-19T09:13:05;12.32;;;3.95;;
51824;SDS011;37879;52.986;6.282;2023-09-19T09:15:32;10.40;;;3.10;;
51824;SDS011;37879;52.986;6.282;2023-09-19T09:18:01;12.23;;;3.55;;
51824;SDS011;37879;52.986;6.282;2023-09-19T09:20:29;11.50;;;3.47;;
51824;SDS011;37879;52.986;6.282;2023-09-19T09:22:56;10.85;;;3.25;;
51824;SDS011;37879;52.986;6.282;2023-09-19T09:25:47;9.27;;;2.53;;
51824;SDS011;37879;52.986;6.282;2023-09-19T09:28:22;8.77;;;2.55;;
51824;SDS011;37879;52.986;6.282;2023-09-19T09:30:49;10.23;;;3.97;;
51824;SDS011;37879;52.986;6.282;2023-09-19T09:33:15;11.30;;;2.90;;
51824;SDS011;37879;52.986;6.282;2023-09-19T09:35:52;11.80;;;3.22;;
51824;SDS011;37879;52.986;6.282;2023-09-19T09:38:25;11.35;;;3.00;;
51824;SDS011;37879;52.986;6.282;2023-09-19T09:40:57;9.75;;;3.25;;
51824;SDS011;37879;52.986;6.282;2023-09-19T09:43:27;10.23;;;2.70;;
51824;SDS011;37879;52.986;6.282;2023-09-19T09:51:41;6.85;;;2.47;;
51824;SDS011;37879;52.986;6.282;2023-09-19T09:56:55;9.38;;;2.17;;
51824;SDS011;37879;52.986;6.282;2023-09-19T09:59:45;8.52;;;2.58;;
51824;SDS011;37879;52.986;6.282;2023-09-19T10:02:28;10.38;;;2.78;;
51824;SDS011;37879;52.986;6.282;2023-09-19T10:04:58;10.20;;;2.60;;
51824;SDS011;37879;52.986;6.282;2023-09-19T10:07:32;10.00;;;2.38;;
51824;SDS011;37879;52.986;6.282;2023-09-19T10:10:02;8.57;;;2.45;;
51824;SDS011;37879;52.986;6.282;2023-09-19T10:12:48;11.45;;;2.75;;
51824;SDS011;37879;52.986;6.282;2023-09-19T10:15:18;9.45;;;2.88;;
51824;SDS011;37879;52.986;6.282;2023-09-19T10:17:49;12.05;;;3.05;;
51824;SDS011;37879;52.986;6.282;2023-09-19T10:20:21;9.90;;;2.67;;
51824;SDS011;37879;52.986;6.282;2023-09-19T10:22:49;12.02;;;3.55;;
51824;SDS011;37879;52.986;6.282;2023-09-19T10:25:28;11.27;;;3.40;;
51824;SDS011;37879;52.986;6.282;2023-09-19T10:27:55;11.15;;;3.25;;
51824;SDS011;37879;52.986;6.282;2023-09-19T10:30:24;10.57;;;3.17;;
51824;SDS011;37879;52.986;6.282;2023-09-19T10:32:55;11.30;;;3.22;;
51824;SDS011;37879;52.986;6.282;2023-09-19T10:35:25;10.35;;;3.13;;
51824;SDS011;37879;52.986;6.282;2023-09-19T10:37:51;14.57;;;2.92;;
51824;SDS011;37879;52.986;6.282;2023-09-19T10:40:19;8.57;;;3.05;;
51824;SDS011;37879;52.986;6.282;2023-09-19T10:42:51;7.70;;;2.92;;
51824;SDS011;37879;52.986;6.282;2023-09-19T10:45:18;9.18;;;3.15;;
51824;SDS011;37879;52.986;6.282;2023-09-19T10:47:45;9.98;;;3.85;;
51824;SDS011;37879;52.986;6.282;2023-09-19T10:50:21;8.88;;;2.95;;
51824;SDS011;37879;52.986;6.282;2023-09-19T10:52:47;11.43;;;3.53;;
51824;SDS011;37879;52.986;6.282;2023-09-19T10:55:23;8.10;;;2.85;;
51824;SDS011;37879;52.986;6.282;2023-09-19T10:57:50;11.50;;;2.80;;
51824;SDS011;37879;52.986;6.282;2023-09-19T11:00:16;8.80;;;2.83;;
51824;SDS011;37879;52.986;6.282;2023-09-19T11:05:37;10.13;;;3.38;;
51824;SDS011;37879;52.986;6.282;2023-09-19T11:08:08;8.55;;;2.88;;
51824;SDS011;37879;52.986;6.282;2023-09-19T11:10:45;11.00;;;3.88;;
51824;SDS011;37879;52.986;6.282;2023-09-19T11:13:25;9.60;;;3.15;;
51824;SDS011;37879;52.986;6.282;2023-09-19T11:21:49;9.10;;;2.55;;
51824;SDS011;37879;52.986;6.282;2023-09-19T11:26:47;13.43;;;3.38;;
51824;SDS011;37879;52.986;6.282;2023-09-19T11:29:29;12.30;;;2.75;;
51824;SDS011;37879;52.986;6.282;2023-09-19T11:31:56;9.20;;;2.38;;
51824;SDS011;37879;52.986;6.282;2023-09-19T11:37:02;8.50;;;2.22;;
51824;SDS011;37879;52.986;6.282;2023-09-19T11:42:45;11.05;;;3.08;;
51824;SDS011;37879;52.986;6.282;2023-09-19T11:48:15;9.45;;;2.95;;
51824;SDS011;37879;52.986;6.282;2023-09-19T11:50:43;9.98;;;3.33;;
51824;SDS011;37879;52.986;6.282;2023-09-19T11:53:12;14.25;;;3.50;;
51824;SDS011;37879;52.986;6.282;2023-09-19T11:55:39;8.15;;;3.00;;
51824;SDS011;37879;52.986;6.282;2023-09-19T11:58:08;13.38;;;3.03;;
51824;SDS011;37879;52.986;6.282;2023-09-19T12:00:37;12.10;;;2.70;;
51824;SDS011;37879;52.986;6.282;2023-09-19T12:03:09;8.93;;;2.58;;
51824;SDS011;37879;52.986;6.282;2023-09-19T12:05:36;8.25;;;2.65;;
51824;SDS011;37879;52.986;6.282;2023-09-19T12:08:03;10.85;;;2.63;;
51824;SDS011;37879;52.986;6.282;2023-09-19T12:10:32;12.75;;;3.45;;
51824;SDS011;37879;52.986;6.282;2023-09-19T12:12:58;9.35;;;2.65;;
51824;SDS011;37879;52.986;6.282;2023-09-19T12:15:27;4.30;;;2.72;;
51824;SDS011;37879;52.986;6.282;2023-09-19T12:17:59;11.27;;;2.97;;
51824;SDS011;37879;52.986;6.282;2023-09-19T12:20:25;6.55;;;2.10;;
51824;SDS011;37879;52.986;6.282;2023-09-19T12:23:06;6.43;;;2.88;;
51824;SDS011;37879;52.986;6.282;2023-09-19T12:25:42;6.93;;;2.17;;
51824;SDS011;37879;52.986;6.282;2023-09-19T12:28:13;7.88;;;1.73;;
51824;SDS011;37879;52.986;6.282;2023-09-19T12:30:41;7.32;;;1.92;;
51824;SDS011;37879;52.986;6.282;2023-09-19T12:33:17;6.68;;;2.17;;
51824;SDS011;37879;52.986;6.282;2023-09-19T12:35:50;7.30;;;2.88;;
51824;SDS011;37879;52.986;6.282;2023-09-19T12:38:24;7.20;;;2.28;;
51824;SDS011;37879;52.986;6.282;2023-09-19T12:40:54;6.38;;;2.17;;
51824;SDS011;37879;52.986;6.282;2023-09-19T12:43:21;13.15;;;3.55;;
51824;SDS011;37879;52.986;6.282;2023-09-19T12:45:48;5.30;;;1.95;;
51824;SDS011;37879;52.986;6.282;2023-09-19T12:48:32;7.97;;;2.17;;
51824;SDS011;37879;52.986;6.282;2023-09-19T12:51:00;5.43;;;1.80;;
51824;SDS011;37879;52.986;6.282;2023-09-19T12:53:31;6.80;;;2.00;;
51824;SDS011;37879;52.986;6.282;2023-09-19T12:55:59;10.48;;;2.67;;
51824;SDS011;37879;52.986;6.282;2023-09-19T12:58:25;9.07;;;2.50;;
51824;SDS011;37879;52.986;6.282;2023-09-19T13:00:51;6.20;;;2.03;;
51824;SDS011;37879;52.986;6.282;2023-09-19T13:05:54;5.55;;;1.60;;
51824;SDS011;37879;52.986;6.282;2023-09-19T13:08:29;9.82;;;2.35;;
51824;SDS011;37879;52.986;6.282;2023-09-19T13:13:26;5.80;;;2.20;;
51824;SDS011;37879;52.986;6.282;2023-09-19T13:15:53;7.13;;;2.00;;
51824;SDS011;37879;52.986;6.282;2023-09-19T13:18:22;9.73;;;2.05;;
51824;SDS011;37879;52.986;6.282;2023-09-19T13:21:07;7.65;;;1.73;;
51824;SDS011;37879;52.986;6.282;2023-09-19T13:23:40;7.25;;;2.08;;
51824;SDS011;37879;52.986;6.282;2023-09-19T13:26:08;6.70;;;1.88;;
51824;SDS011;37879;52.986;6.282;2023-09-19T13:28:35;4.90;;;1.38;;
51824;SDS011;37879;52.986;6.282;2023-09-19T13:31:02;6.82;;;2.15;;
51824;SDS011;37879;52.986;6.282;2023-09-19T13:33:28;7.30;;;1.70;;
51824;SDS011;37879;52.986;6.282;2023-09-19T13:35:54;7.45;;;1.77;;
51824;SDS011;37879;52.986;6.282;2023-09-19T13:38:20;5.20;;;1.42;;
51824;SDS011;37879;52.986;6.282;2023-09-19T13:40:47;6.07;;;1.33;;
51824;SDS011;37879;52.986;6.282;2023-09-19T13:43:13;5.03;;;2.10;;
51824;SDS011;37879;52.986;6.282;2023-09-19T13:45:39;3.55;;;1.15;;
51824;SDS011;37879;52.986;6.282;2023-09-19T13:48:08;4.38;;;1.20;;
51824;SDS011;37879;52.986;6.282;2023-09-19T13:50:36;6.57;;;1.55;;
51824;SDS011;37879;52.986;6.282;2023-09-19T13:53:07;4.38;;;1.52;;
51824;SDS011;37879;52.986;6.282;2023-09-19T13:55:33;3.75;;;1.30;;
51824;SDS011;37879;52.986;6.282;2023-09-19T13:57:58;3.80;;;1.35;;
51824;SDS011;37879;52.986;6.282;2023-09-19T14:00:25;6.45;;;1.30;;
51824;SDS011;37879;52.986;6.282;2023-09-19T14:02:51;5.78;;;1.42;;
51824;SDS011;37879;52.986;6.282;2023-09-19T14:05:17;5.22;;;1.50;;
51824;SDS011;37879;52.986;6.282;2023-09-19T14:07:44;5.18;;;1.20;;
51824;SDS011;37879;52.986;6.282;2023-09-19T14:10:10;6.22;;;1.60;;
51824;SDS011;37879;52.986;6.282;2023-09-19T14:12:37;7.18;;;1.65;;
51824;SDS011;37879;52.986;6.282;2023-09-19T14:15:05;5.55;;;1.40;;
51824;SDS011;37879;52.986;6.282;2023-09-19T14:17:33;3.67;;;1.50;;
51824;SDS011;37879;52.986;6.282;2023-09-19T14:19:59;3.70;;;1.08;;
51824;SDS011;37879;52.986;6.282;2023-09-19T14:22:24;7.63;;;1.63;;
51824;SDS011;37879;52.986;6.282;2023-09-19T14:24:50;4.40;;;1.23;;
51824;SDS011;37879;52.986;6.282;2023-09-19T14:27:17;5.35;;;1.45;;
51824;SDS011;37879;52.986;6.282;2023-09-19T14:29:43;5.82;;;1.70;;
51824;SDS011;37879;52.986;6.282;2023-09-19T14:32:09;4.05;;;1.42;;
51824;SDS011;37879;52.986;6.282;2023-09-19T14:34:35;7.05;;;2.17;;
51824;SDS011;37879;52.986;6.282;2023-09-19T14:37:06;4.53;;;1.17;;
51824;SDS011;37879;52.986;6.282;2023-09-19T14:39:33;5.78;;;1.80;;
51824;SDS011;37879;52.986;6.282;2023-09-19T14:41:58;2.83;;;1.17;;
51824;SDS011;37879;52.986;6.282;2023-09-19T14:44:24;4.95;;;1.90;;
51824;SDS011;37879;52.986;6.282;2023-09-19T14:46:50;3.55;;;1.10;;
51824;SDS011;37879;52.986;6.282;2023-09-19T14:49:15;8.80;;;2.95;;
51824;SDS011;37879;52.986;6.282;2023-09-19T14:51:42;7.20;;;1.65;;
51824;SDS011;37879;52.986;6.282;2023-09-19T14:54:09;4.15;;;1.35;;
51824;SDS011;37879;52.986;6.282;2023-09-19T14:56:35;4.38;;;1.45;;
51824;SDS011;37879;52.986;6.282;2023-09-19T14:59:01;3.47;;;1.73;;
51824;SDS011;37879;52.986;6.282;2023-09-19T15:01:27;6.15;;;1.27;;
51824;SDS011;37879;52.986;6.282;2023-09-19T15:03:53;2.53;;;0.68;;
51824;SDS011;37879;52.986;6.282;2023-09-19T15:06:20;4.65;;;1.00;;
51824;SDS011;37879;52.986;6.282;2023-09-19T15:08:46;4.18;;;1.55;;
51824;SDS011;37879;52.986;6.282;2023-09-19T15:11:15;2.92;;;1.15;;
51824;SDS011;37879;52.986;6.282;2023-09-19T15:13:45;4.00;;;0.93;;
51824;SDS011;37879;52.986;6.282;2023-09-19T15:16:11;7.07;;;1.40;;
51824;SDS011;37879;52.986;6.282;2023-09-19T15:18:39;4.70;;;1.67;;
51824;SDS011;37879;52.986;6.282;2023-09-19T15:21:10;7.25;;;1.58;;
51824;SDS011;37879;52.986;6.282;2023-09-19T15:23:37;3.30;;;1.50;;
51824;SDS011;37879;52.986;6.282;2023-09-19T15:26:04;3.67;;;1.25;;
51824;SDS011;37879;52.986;6.282;2023-09-19T15:28:30;3.05;;;1.27;;
51824;SDS011;37879;52.986;6.282;2023-09-19T15:31:00;3.13;;;1.40;;
51824;SDS011;37879;52.986;6.282;2023-09-19T15:33:30;3.25;;;1.00;;
51824;SDS011;37879;52.986;6.282;2023-09-19T15:38:29;4.97;;;1.73;;
51824;SDS011;37879;52.986;6.282;2023-09-19T15:40:55;4.40;;;2.03;;
51824;SDS011;37879;52.986;6.282;2023-09-19T15:43:20;5.82;;;1.60;;
51824;SDS011;37879;52.986;6.282;2023-09-19T15:45:47;7.28;;;1.85;;
51824;SDS011;37879;52.986;6.282;2023-09-19T15:48:13;4.60;;;1.63;;
51824;SDS011;37879;52.986;6.282;2023-09-19T15:50:39;3.22;;;1.20;;
51824;SDS011;37879;52.986;6.282;2023-09-19T15:53:07;4.78;;;1.52;;
51824;SDS011;37879;52.986;6.282;2023-09-19T15:55:42;7.35;;;2.03;;
51824;SDS011;37879;52.986;6.282;2023-09-19T15:58:08;5.72;;;2.22;;
51824;SDS011;37879;52.986;6.282;2023-09-19T16:00:34;6.43;;;2.22;;
51824;SDS011;37879;52.986;6.282;2023-09-19T16:03:05;5.95;;;2.13;;
51824;SDS011;37879;52.986;6.282;2023-09-19T16:05:35;6.70;;;1.95;;
51824;SDS011;37879;52.986;6.282;2023-09-19T16:08:05;5.85;;;1.70;;
51824;SDS011;37879;52.986;6.282;2023-09-19T16:10:35;2.90;;;1.10;;
51824;SDS011;37879;52.986;6.282;2023-09-19T16:13:04;4.75;;;1.70;;
51824;SDS011;37879;52.986;6.282;2023-09-19T16:15:30;3.92;;;1.77;;
51824;SDS011;37879;52.986;6.282;2023-09-19T16:17:56;3.30;;;1.48;;
51824;SDS011;37879;52.986;6.282;2023-09-19T16:20:21;5.20;;;1.55;;
51824;SDS011;37879;52.986;6.282;2023-09-19T16:22:48;4.13;;;1.70;;
51824;SDS011;37879;52.986;6.282;2023-09-19T16:25:14;6.35;;;1.90;;
51824;SDS011;37879;52.986;6.282;2023-09-19T16:27:39;4.13;;;1.40;;
51824;SDS011;37879;52.986;6.282;2023-09-19T16:30:05;4.20;;;1.80;;
51824;SDS011;37879;52.986;6.282;2023-09-19T16:32:34;4.22;;;2.10;;
51824;SDS011;37879;52.986;6.282;2023-09-19T16:35:01;4.80;;;2.00;;
51824;SDS011;37879;52.986;6.282;2023-09-19T16:37:28;6.35;;;1.98;;